• Join FlightAware (Why Join?)
  • Login
  • US Flag 
07:56AM EDT


 

Airport Tracker/Info


-or-


 

Live Flight TrackerFlight Track Log ✈ SWA561 ✈ 05-May-2013 ✈ KOAK - KLAX

Flight Track Log - Related Links

Times and Time Zones

All times are in EDT time to prevent confusion due to time zone crossing. See the SWA561 flight status page for this flight to view local times or setup timezone preferences in your user account.

Time Position Orientation Groundspeed Altitude Reporting Facility
EDT Latitude Longitude Course Direction KTS MPH feet Rate Location/Type
08:17PM 37.6833 -122.1833 139° Southeast 169 194 2,000  Level Northern Cal TRACON
08:17PM 37.6639 -122.1617 139° Southeast 203 234 2,800 1,380 Climbing Oakland Center
08:18PM 37.6067 -122.1278 155° Southeast 226 260 4,300 2,520 Climbing Oakland Center
08:20PM 37.5422 -122.1031 163° South 252 290 8,000 3,240 Climbing Oakland Center
08:21PM 37.4758 -122.0572 151° Southeast 277 319 10,900 3,240 Climbing Oakland Center
08:22PM 37.3953 -122.0031 152° Southeast 326 375 14,600 3,360 Climbing Oakland Center
08:23PM 37.3114 -121.9478 152° Southeast 341 392 17,800 3,240 Climbing Oakland Center
08:24PM 37.2247 -121.8908 152° Southeast 352 405 21,200 3,000 Climbing Oakland Center
08:25PM 37.1331 -121.8308 152° Southeast 370 426 23,900 2,940 Climbing Oakland Center
08:26PM 37.0200 -121.7567 152° Southeast 381 438 27,200 2,400 Climbing Oakland Center
08:27PM 36.9361 -121.6711 141° Southeast 390 449 28,900 1,860 Climbing Oakland Center
08:28PM 36.8597 -121.5631 131° Southeast 411 473 31,000 1,860 Climbing Oakland Center
08:29PM 36.7831 -121.4628 134° Southeast 416 479 32,700 1,500 Climbing Oakland Center
08:30PM 36.7036 -121.3550 133° Southeast 421 484 34,100 1,080 Climbing Oakland Center
08:31PM 36.6206 -121.2464 134° Southeast 430 495 35,000 420 Climbing Oakland Center
08:32PM 36.5367 -121.1339 133° Southeast 440 506 35,000  Level Oakland Center
08:33PM 36.4525 -121.0231 133° Southeast 442 509 35,000  Level Oakland Center
08:34PM 36.3686 -120.9125 133° Southeast 441 507 35,000  Level Oakland Center
08:35PM 36.2667 -120.7792 133° Southeast 443 510 35,000  Level Oakland Center
08:36PM 36.1819 -120.6706 134° Southeast 440 506 35,000  Level Oakland Center
08:37PM 36.0969 -120.5600 134° Southeast 441 507 35,000  Level Oakland Center
08:38PM 36.0114 -120.4439 132° Southeast 464 534 35,000  Level Oakland Center
08:39PM 35.9253 -120.3392 135° Southeast 439 505 35,000  Level Oakland Center
08:40PM 35.8394 -120.2275 133° Southeast 445 512 35,000  Level Oakland Center
08:41PM 35.7525 -120.1153 134° Southeast 448 516 35,000  Level Oakland Center
08:42PM 35.6667 -120.0042 134° Southeast 446 513 35,000  Level Oakland Center
08:43PM 35.5669 -119.9117 143° Southeast 446 513 35,000  Level Oakland Center
08:44PM 35.4650 -119.8225 145° Southeast 445 512 35,000  Level Oakland Center
08:45PM 35.3631 -119.7339 145° Southeast 446 513 35,000 -660 Level Oakland Center
08:46PM 35.3025 -119.6808 144° Southeast 446 513 33,900 -2,160 Descending Los Angeles Center
08:47PM 35.2028 -119.5964 145° Southeast 438 504 31,500 -2,460 Descending Los Angeles Center
08:48PM 35.0872 -119.4972 145° Southeast 424 488 28,900 -2,280 Descending Los Angeles Center
08:49PM 34.9956 -119.4194 145° Southeast 404 465 26,800 -2,040 Descending Los Angeles Center
08:50PM 34.9075 -119.3447 145° Southeast 390 449 24,800 -1,920 Descending Los Angeles Center
08:51PM 34.8233 -119.2733 145° Southeast 373 429 22,900 -1,620 Descending Los Angeles Center
08:52PM 34.7578 -119.2183 145° Southeast 362 417 21,500 -1,800 Descending Los Angeles Center
08:53PM 34.6633 -119.1375 145° Southeast 347 399 19,300 -2,040 Descending Los Angeles Center
08:54PM 34.5722 -119.0639 146° Southeast 356 410 17,300 -1,920 Descending Los Angeles Center
08:55PM 34.4931 -118.9967 145° Southeast 347 399 15,400 -1,860 Descending Los Angeles Center
08:56PM 34.4167 -118.9289 144° Southeast 339 390 13,500 -1,500 Descending Los Angeles Center
08:57PM 34.3372 -118.8811 154° Southeast 317 365 12,100 -1,260 Descending Los Angeles Center
08:58PM 34.2300 -118.8569 169° South 280 322 10,500 -1,500 Descending Los Angeles Center
08:59PM 34.1439 -118.8228 162° South 277 319 8,700 -1,620 Descending Los Angeles Center
09:00PM 34.0739 -118.7906 159° South 271 312 7,200 -1,740 Descending Los Angeles Center
09:01PM 33.9978 -118.7617 163° South 260 299 5,200 -1,860 Descending Los Angeles Center
09:02PM 33.9575 -118.6911 125° Southeast 258 297 3,400 -1,620 Descending Los Angeles Center
09:04PM 33.9361 -118.6128 108° East 248 285 2,000 -720 Descending Los Angeles Center
09:05PM 33.9386 -118.5378 88° East 203 234 2,000 -540 Level Los Angeles Center
09:06PM 33.9444 -118.4819 83° East 172 198 1,000 -840 Descending Los Angeles Center
09:07PM 33.9478 -118.4381 85° East 137 158 300 -720 Descending Los Angeles Center
09:09PM 33.9425 -118.4081 104° East  Level Estimated
09:16PM 33.9425 -118.4081 104° East  Level Estimated